Time;durP1;ratioP1;P1;durP2;ratioP2;P2;SDS_P1;SDS_P2;PMS_P1;PMS_P2;Temp;Humidity;BMP_temperature;BMP_pressure;BME280_temperature;BME280_humidity;BME280_pressure;Samples;Min_cycle;Max_cycle;Signal;HPM_P1;HPM_P2
2022/06/30 00:01:10;;;;;;;5.90;0.90;;;;;;;17.71;82.27;100694.00;7389116;19;20089;-77
2022/06/30 00:03:36;;;;;;;6.88;1.88;;;;;;;17.70;81.84;100692.34;7391498;19;20024;-79
2022/06/30 00:06:04;;;;;;;11.52;0.90;;;;;;;17.69;82.18;100690.69;7386866;19;20113;-79
2022/06/30 00:08:31;;;;;;;5.75;0.80;;;;;;;17.67;82.13;100691.94;7388707;19;20522;-77
2022/06/30 00:11:06;;;;;;;6.45;0.77;;;;;;;17.65;82.10;100697.47;7390637;19;20499;-77
2022/06/30 00:13:38;;;;;;;3.33;0.50;;;;;;;17.62;82.45;100695.22;7393104;19;20522;-79
2022/06/30 00:16:05;;;;;;;10.32;1.13;;;;;;;17.65;83.32;100688.66;7390472;19;20024;-76
2022/06/30 00:18:34;;;;;;;7.60;0.80;;;;;;;17.61;82.89;100690.91;7393979;19;20017;-77
2022/06/30 00:21:01;;;;;;;5.95;0.60;;;;;;;17.61;82.31;100688.25;7384591;19;20354;-77
2022/06/30 00:23:28;;;;;;;6.63;0.60;;;;;;;17.61;82.81;100682.91;7392544;19;20030;-77
2022/06/30 00:25:55;;;;;;;10.20;2.80;;;;;;;17.60;82.56;100683.13;7390481;19;20019;-78
2022/06/30 00:28:23;;;;;;;7.03;0.60;;;;;;;17.60;83.07;100683.94;7391690;19;20010;-77
2022/06/30 00:30:51;;;;;;;8.50;1.05;;;;;;;17.62;82.55;100694.38;7390744;19;20022;-78
2022/06/30 00:33:18;;;;;;;5.18;0.50;;;;;;;17.64;82.64;100702.97;7391851;19;20483;-78
2022/06/30 00:35:46;;;;;;;3.70;0.50;;;;;;;17.63;82.11;100699.50;7387011;19;20019;-78
2022/06/30 00:38:13;;;;;;;4.97;1.02;;;;;;;17.63;82.41;100699.50;7390075;19;20539;-78
2022/06/30 00:40:43;;;;;;;5.28;0.93;;;;;;;17.63;82.12;100701.31;7389132;19;20384;-77
2022/06/30 00:43:10;;;;;;;8.38;0.50;;;;;;;17.59;82.08;100681.44;7387696;19;20015;-78
2022/06/30 00:45:46;;;;;;;7.20;0.70;;;;;;;17.53;82.40;100656.47;7390340;19;20031;-76
2022/06/30 00:48:15;;;;;;;8.60;0.70;;;;;;;17.51;82.54;100645.22;7391415;19;20045;-77
2022/06/30 00:50:42;;;;;;;6.13;0.70;;;;;;;17.55;83.13;100643.78;7384537;19;20184;-78
2022/06/30 00:53:11;;;;;;;7.68;1.30;;;;;;;17.54;82.25;100647.47;7390142;19;20028;-78
2022/06/30 00:55:38;;;;;;;7.28;0.93;;;;;;;17.52;81.89;100650.31;7390871;19;20397;-77
2022/06/30 00:58:07;;;;;;;6.45;0.63;;;;;;;17.53;82.11;100643.97;7390523;19;20345;-78
2022/06/30 01:00:48;;;;;;;11.32;1.17;;;;;;;17.52;82.35;100625.56;7391435;19;20054;-77
2022/06/30 01:03:16;;;;;;;4.63;0.65;;;;;;;17.50;81.81;100631.09;7390137;19;20028;-76
2022/06/30 01:05:45;;;;;;;6.82;0.80;;;;;;;17.50;82.06;100638.25;7389043;19;20010;-78
2022/06/30 01:08:15;;;;;;;5.78;1.05;;;;;;;17.48;82.29;100643.75;7385598;19;20109;-76
2022/06/30 01:13:48;;;;;;;5.30;0.80;;;;;;;17.46;82.25;100637.03;7385385;19;20015;-78
2022/06/30 01:16:15;;;;;;;6.50;0.60;;;;;;;17.45;82.23;100640.69;7386292;19;20038;-77
2022/06/30 01:18:41;;;;;;;5.05;0.88;;;;;;;17.41;82.10;100632.31;7385342;19;20017;-79
2022/06/30 01:21:08;;;;;;;10.38;2.90;;;;;;;17.40;82.95;100635.97;7385502;19;20013;-78
2022/06/30 01:23:35;;;;;;;10.43;0.70;;;;;;;17.43;82.76;100635.56;7388694;19;20081;-76
2022/06/30 01:26:02;;;;;;;6.25;1.08;;;;;;;17.43;82.58;100638.22;7389610;19;20020;-77
2022/06/30 01:28:29;;;;;;;6.18;0.60;;;;;;;17.46;82.25;100637.84;7389768;19;20014;-77
2022/06/30 01:30:56;;;;;;;9.90;1.33;;;;;;;17.46;82.41;100635.19;7388790;19;20335;-77
2022/06/30 01:33:23;;;;;;;7.95;0.73;;;;;;;17.46;83.19;100624.53;7388666;19;20490;-80
2022/06/30 01:35:50;;;;;;;8.25;0.90;;;;;;;17.46;82.34;100635.19;7385096;19;20475;-77
2022/06/30 01:38:19;;;;;;;9.23;0.60;;;;;;;17.44;82.29;100639.88;7389289;19;20025;-77
2022/06/30 01:40:46;;;;;;;7.07;0.60;;;;;;;17.42;82.32;100641.91;7386355;19;20010;-78
2022/06/30 01:43:13;;;;;;;4.53;0.93;;;;;;;17.45;83.26;100640.69;7390293;19;20018;-77
2022/06/30 01:45:41;;;;;;;6.40;0.98;;;;;;;17.46;82.26;100629.84;7389007;19;20014;-77
2022/06/30 01:48:09;;;;;;;6.68;0.85;;;;;;;17.44;81.98;100626.56;7390652;19;20017;-77
2022/06/30 01:50:37;;;;;;;4.85;0.65;;;;;;;17.41;81.75;100619.00;7386969;19;20022;-77
2022/06/30 01:53:04;;;;;;;6.50;1.10;;;;;;;17.42;83.02;100627.81;7389398;19;20483;-76
2022/06/30 01:55:31;;;;;;;7.72;0.70;;;;;;;17.44;83.18;100621.25;7386898;19;20033;-76
2022/06/30 01:57:58;;;;;;;5.10;0.65;;;;;;;17.46;82.49;100619.22;7383567;19;20423;-78
2022/06/30 02:00:27;;;;;;;4.32;0.55;;;;;;;17.47;82.03;100620.84;7388440;19;20094;-78
2022/06/30 02:02:55;;;;;;;3.28;0.60;;;;;;;17.50;83.21;100632.94;7383082;19;20010;-76
2022/06/30 02:05:23;;;;;;;3.95;0.43;;;;;;;17.51;82.36;100634.56;7384736;19;20014;-77
2022/06/30 02:07:51;;;;;;;5.22;0.60;;;;;;;17.50;82.15;100644.38;7386526;19;20039;-76
2022/06/30 02:10:23;;;;;;;11.93;0.85;;;;;;;17.50;82.33;100651.56;7385632;19;20026;-77
2022/06/30 02:12:52;;;;;;;9.55;1.08;;;;;;;17.48;82.63;100645.59;7389135;19;20011;-76
2022/06/30 02:15:24;;;;;;;8.73;0.60;;;;;;;17.48;83.28;100642.94;7389413;19;20228;-77
2022/06/30 02:17:53;;;;;;;6.97;0.80;;;;;;;17.47;83.23;100641.31;7390427;19;20015;-78
2022/06/30 02:20:23;;;;;;;8.73;0.75;;;;;;;17.46;83.34;100639.69;7384172;19;20019;-78
2022/06/30 02:22:54;;;;;;;6.22;0.90;;;;;;;17.47;85.63;100631.47;7384981;19;20014;-77
2022/06/30 02:25:23;;;;;;;6.47;1.02;;;;;;;17.46;84.79;100631.69;7384372;19;20039;-79
2022/06/30 02:27:50;;;;;;;6.07;0.93;;;;;;;17.46;84.80;100639.69;7387210;19;20017;-76
2022/06/30 02:30:18;;;;;;;10.45;3.08;;;;;;;17.44;84.90;100641.72;7386063;19;20105;-77
2022/06/30 02:32:46;;;;;;;11.40;1.17;;;;;;;17.47;86.09;100652.75;7387390;19;20406;-77
2022/06/30 02:35:13;;;;;;;6.57;0.95;;;;;;;17.43;85.05;100654.19;7386675;19;20057;-78
2022/06/30 02:37:41;;;;;;;7.05;0.47;;;;;;;17.43;85.33;100654.19;7384663;19;20015;-77
2022/06/30 02:40:08;;;;;;;7.43;1.27;;;;;;;17.42;85.10;100657.88;7385914;19;20020;-77
2022/06/30 02:42:36;;;;;;;7.03;1.15;;;;;;;17.40;85.76;100659.09;7383022;19;20039;-77
2022/06/30 02:45:04;;;;;;;6.90;0.60;;;;;;;17.42;85.52;100659.72;7386457;19;20017;-77
2022/06/30 02:47:33;;;;;;;6.32;0.80;;;;;;;17.41;84.99;100656.25;7384573;19;20023;-77
2022/06/30 02:50:03;;;;;;;12.77;3.63;;;;;;;17.44;85.95;100660.34;7383504;19;20355;-77
2022/06/30 02:52:34;;;;;;;3.88;0.80;;;;;;;17.44;85.69;100658.50;7387270;19;20016;-77
2022/06/30 02:55:03;;;;;;;8.02;1.08;;;;;;;17.45;85.46;100660.13;7385982;19;20630;-77
2022/06/30 02:57:30;;;;;;;8.90;0.93;;;;;;;17.42;84.59;100665.06;7386534;19;20357;-77
2022/06/30 02:59:57;;;;;;;11.48;2.55;;;;;;;17.40;84.79;100651.94;7385955;19;20013;-77
2022/06/30 03:02:24;;;;;;;6.35;0.73;;;;;;;17.36;84.77;100656.03;7383562;19;20035;-77
2022/06/30 03:04:51;;;;;;;7.53;0.73;;;;;;;17.33;84.08;100658.25;7384556;19;20018;-77
2022/06/30 03:07:18;;;;;;;5.15;0.50;;;;;;;17.31;84.14;100657.66;7384531;19;20033;-77
2022/06/30 03:09:45;;;;;;;5.63;0.60;;;;;;;17.29;84.11;100660.50;7383776;19;20011;-77
2022/06/30 03:12:12;;;;;;;7.75;0.80;;;;;;;17.32;85.30;100654.78;7384449;19;20090;-77
2022/06/30 03:14:39;;;;;;;5.20;0.45;;;;;;;17.32;84.29;100661.97;7384897;19;20014;-78
2022/06/30 03:17:05;;;;;;;6.35;0.65;;;;;;;17.30;84.41;100664.81;7385486;19;20590;-77
2022/06/30 03:19:32;;;;;;;5.97;0.50;;;;;;;17.31;84.41;100660.31;7385878;19;20020;-78
2022/06/30 03:21:59;;;;;;;4.65;0.98;;;;;;;17.32;84.96;100664.63;7381865;19;20500;-77
2022/06/30 03:24:26;;;;;;;7.85;0.93;;;;;;;17.34;84.66;100667.88;7384476;19;20011;-78
2022/06/30 03:26:53;;;;;;;7.18;0.65;;;;;;;17.31;84.07;100669.13;7383435;19;20022;-76
2022/06/30 03:29:20;;;;;;;5.55;0.60;;;;;;;17.22;83.22;100680.94;7385171;19;20017;-77
2022/06/30 03:31:47;;;;;;;8.57;1.60;;;;;;;17.19;83.77;100665.38;7386341;19;20105;-77
2022/06/30 03:34:14;;;;;;;4.95;0.88;;;;;;;17.18;83.44;100668.22;7383798;19;20018;-77
2022/06/30 03:36:41;;;;;;;2.90;0.50;;;;;;;17.16;83.91;100671.13;7385426;19;20043;-78
2022/06/30 03:39:08;;;;;;;2.95;0.40;;;;;;;17.13;84.15;100668.84;7386372;19;20025;-78
2022/06/30 03:41:35;;;;;;;8.23;2.63;;;;;;;17.12;84.07;100671.72;7384677;19;20014;-76
2022/06/30 03:44:02;;;;;;;5.88;0.80;;;;;;;17.10;84.33;100669.25;7385217;19;20682;-76
2022/06/30 03:46:29;;;;;;;4.50;0.70;;;;;;;17.13;83.54;100676.81;7384936;19;20010;-77
2022/06/30 03:48:56;;;;;;;8.13;0.90;;;;;;;17.14;83.52;100674.97;7384750;19;20087;-76
2022/06/30 03:51:23;;;;;;;5.07;0.43;;;;;;;17.12;83.11;100680.50;7382767;19;20122;-77
2022/06/30 03:53:50;;;;;;;4.43;0.50;;;;;;;17.12;82.98;100674.38;7385844;19;20038;-78
2022/06/30 03:56:17;;;;;;;4.03;0.40;;;;;;;17.11;82.67;100676.22;7385935;19;20752;-77
2022/06/30 03:58:44;;;;;;;2.60;0.40;;;;;;;17.10;82.22;100669.25;7384561;19;20017;-78
2022/06/30 04:01:10;;;;;;;7.47;0.90;;;;;;;17.09;82.37;100667.59;7383634;19;20015;-77
2022/06/30 04:03:37;;;;;;;6.65;0.63;;;;;;;17.10;82.74;100674.56;7383658;19;20452;-77
2022/06/30 04:06:04;;;;;;;1.58;0.20;;;;;;;17.10;81.89;100679.88;7381576;19;20019;-77
2022/06/30 04:08:31;;;;;;;4.10;0.28;;;;;;;17.05;81.30;100672.50;7382813;19;20082;-77
2022/06/30 04:10:58;;;;;;;3.97;0.40;;;;;;;17.03;80.98;100669.22;7385502;19;20015;-76
2022/06/30 04:13:25;;;;;;;3.85;0.38;;;;;;;17.02;81.20;100670.22;7385526;19;20384;-77
2022/06/30 04:15:55;;;;;;;3.40;0.43;;;;;;;17.05;81.33;100671.69;7385156;19;20021;-77
2022/06/30 04:18:22;;;;;;;7.40;0.43;;;;;;;17.05;80.79;100664.53;7383786;19;20031;-77
2022/06/30 04:20:49;;;;;;;9.05;1.13;;;;;;;17.07;82.44;100665.13;7380912;19;20014;-77
2022/06/30 04:23:16;;;;;;;3.85;0.50;;;;;;;17.10;81.71;100671.91;7381834;19;20040;-77
2022/06/30 04:25:43;;;;;;;6.13;0.30;;;;;;;17.11;80.63;100662.91;7386248;19;20374;-77
2022/06/30 04:28:09;;;;;;;2.58;0.40;;;;;;;17.10;79.64;100663.94;7394615;19;20022;-77
2022/06/30 04:33:22;;;;;;;3.65;0.32;;;;;;;17.16;80.55;100664.97;7393747;19;20015;-77
2022/06/30 04:35:49;;;;;;;3.00;0.38;;;;;;;17.14;79.39;100664.34;7390191;19;20583;-77
2022/06/30 04:38:16;;;;;;;11.18;2.42;;;;;;;17.15;79.96;100673.97;7391455;19;20534;-77
2022/06/30 04:43:28;;;;;;;6.95;0.73;;;;;;;17.17;79.69;100688.69;7389481;19;20025;-77
2022/06/30 04:45:55;;;;;;;2.42;0.30;;;;;;;17.14;79.37;100683.78;7391933;19;20027;-78
2022/06/30 04:48:22;;;;;;;4.65;1.00;;;;;;;17.14;80.21;100685.63;7390372;19;20068;-78
2022/06/30 04:50:49;;;;;;;7.80;0.40;;;;;;;17.13;79.53;100676.00;7390081;19;20022;-77
2022/06/30 04:53:16;;;;;;;5.07;0.30;;;;;;;17.12;79.53;100685.00;7388186;19;20021;-78
2022/06/30 04:55:43;;;;;;;5.10;0.70;;;;;;;17.13;79.27;100687.44;7389409;19;20025;-77
2022/06/30 04:58:10;;;;;;;8.93;3.60;;;;;;;17.14;79.89;100677.63;7391793;19;20027;-76
2022/06/30 05:00:37;;;;;;;5.60;0.50;;;;;;;17.15;79.73;100677.44;7389135;19;20038;-78
2022/06/30 05:03:04;;;;;;;4.22;0.25;;;;;;;17.13;78.81;100681.31;7388354;19;20021;-77
2022/06/30 05:05:31;;;;;;;4.07;0.30;;;;;;;17.12;78.68;100677.81;7386683;19;20017;-77
2022/06/30 05:07:58;;;;;;;5.43;1.02;;;;;;;17.15;80.83;100679.28;7389643;19;20484;-78
2022/06/30 05:10:25;;;;;;;2.03;0.30;;;;;;;17.12;79.91;100666.41;7389823;19;20484;-77
2022/06/30 05:12:52;;;;;;;5.70;0.30;;;;;;;17.10;79.30;100658.63;7389507;19;20085;-77
2022/06/30 05:15:19;;;;;;;4.03;0.38;;;;;;;17.08;79.11;100661.47;7391047;19;20019;-77
2022/06/30 05:17:46;;;;;;;4.25;0.60;;;;;;;17.12;81.20;100663.75;7391644;19;20074;-78
2022/06/30 05:20:13;;;;;;;5.10;0.75;;;;;;;17.08;79.57;100674.75;7388290;19;20019;-78
2022/06/30 05:22:40;;;;;;;4.55;0.30;;;;;;;17.06;79.42;100665.34;7390110;19;20014;-77
2022/06/30 05:27:57;;;;;;;5.72;0.38;;;;;;;17.08;80.72;100665.97;7388836;19;20015;-76
2022/06/30 05:30:24;;;;;;;7.13;0.40;;;;;;;17.07;80.19;100678.44;7388118;19;20084;-77
2022/06/30 05:32:50;;;;;;;4.85;0.38;;;;;;;17.07;79.76;100675.75;7390073;19;20018;-77
2022/06/30 05:35:17;;;;;;;5.35;1.60;;;;;;;17.08;79.37;100668.63;7385263;19;20010;-77
2022/06/30 05:37:51;;;;;;;3.72;0.30;;;;;;;17.10;80.55;100678.03;7389574;19;20041;-77
2022/06/30 05:40:17;;;;;;;7.97;0.40;;;;;;;17.13;79.49;100684.78;7388871;19;20460;-76
2022/06/30 05:42:44;;;;;;;5.28;0.50;;;;;;;17.16;79.00;100707.53;7388018;19;20079;-77
2022/06/30 05:45:11;;;;;;;5.43;0.70;;;;;;;17.14;79.35;100705.06;7388553;19;20339;-77
2022/06/30 05:47:50;;;;;;;5.20;0.35;;;;;;;17.15;80.16;100704.03;7388462;19;20018;-78
2022/06/30 05:50:18;;;;;;;2.85;0.32;;;;;;;17.15;79.59;100709.34;7386398;19;20015;-78
2022/06/30 05:52:45;;;;;;;7.88;0.50;;;;;;;17.14;79.55;100709.53;7390816;19;20022;-77
2022/06/30 05:55:12;;;;;;;6.38;1.17;;;;;;;17.13;79.73;100708.72;7389277;19;20014;-78
2022/06/30 05:57:57;;;;;;;5.55;0.40;;;;;;;17.15;79.67;100703.22;7388785;19;20054;-77
2022/06/30 06:00:28;;;;;;;5.05;0.30;;;;;;;17.14;79.37;100701.56;7388556;19;20105;-77
2022/06/30 06:02:56;;;;;;;5.88;0.52;;;;;;;17.14;79.07;100702.41;7389108;19;20479;-77
2022/06/30 06:05:22;;;;;;;4.05;0.30;;;;;;;17.11;78.60;100697.47;7383614;19;20051;-77
2022/06/30 06:07:51;;;;;;;5.43;0.40;;;;;;;17.10;79.40;100701.16;7386645;19;20349;-76
2022/06/30 06:10:18;;;;;;;3.60;0.20;;;;;;;17.07;79.18;100697.03;7387471;19;20039;-78
2022/06/30 06:12:45;;;;;;;4.28;0.63;;;;;;;17.06;79.06;100689.28;7387319;19;20206;-77
2022/06/30 06:15:14;;;;;;;6.57;1.42;;;;;;;17.06;79.29;100698.09;7386932;19;20024;-76
2022/06/30 06:17:46;;;;;;;5.18;0.40;;;;;;;17.11;79.81;100702.81;7387628;19;20015;-77
2022/06/30 06:20:15;;;;;;;4.95;0.75;;;;;;;17.16;79.30;100707.53;7382880;19;20050;-77
2022/06/30 06:22:42;;;;;;;3.90;0.30;;;;;;;17.16;79.29;100700.38;7386420;19;20018;-77
2022/06/30 06:25:10;;;;;;;4.43;1.38;;;;;;;17.18;80.66;100703.63;7386434;19;20014;-78
2022/06/30 06:27:37;;;;;;;5.32;0.55;;;;;;;17.19;80.48;100702.63;7386427;19;20010;-75
2022/06/30 06:30:06;;;;;;;4.25;0.60;;;;;;;17.20;79.71;100714.91;7387539;19;20337;-75
2022/06/30 06:32:33;;;;;;;5.03;0.30;;;;;;;17.21;79.11;100705.09;7385196;19;20011;-77
2022/06/30 06:35:00;;;;;;;7.10;0.55;;;;;;;17.19;79.09;100712.44;7384849;19;20021;-75
2022/06/30 06:37:34;;;;;;;11.60;1.70;;;;;;;17.18;79.88;100708.13;7384809;19;20015;-78
2022/06/30 06:40:02;;;;;;;8.95;1.20;;;;;;;17.24;83.42;100708.16;7388376;19;20014;-76
2022/06/30 06:42:30;;;;;;;11.07;1.48;;;;;;;17.25;81.24;100708.97;7389731;19;20021;-77
2022/06/30 06:44:57;;;;;;;9.95;1.30;;;;;;;17.24;80.18;100717.97;7387562;19;20018;-76
2022/06/30 06:47:24;;;;;;;12.48;2.20;;;;;;;17.23;81.12;100716.31;7388448;19;20018;-77
2022/06/30 06:49:51;;;;;;;9.75;1.08;;;;;;;17.20;81.78;100714.91;7385102;19;20026;-78
2022/06/30 06:52:18;;;;;;;8.55;0.80;;;;;;;17.20;81.08;100706.09;7385597;19;20098;-77
2022/06/30 06:54:44;;;;;;;8.55;0.55;;;;;;;17.21;79.57;100710.41;7385323;19;20029;-75
2022/06/30 06:57:11;;;;;;;9.93;1.15;;;;;;;17.18;79.61;100702.81;7383955;19;20018;-76
2022/06/30 06:59:38;;;;;;;5.93;0.75;;;;;;;17.16;79.56;100708.34;7387731;19;20067;-77
2022/06/30 07:02:06;;;;;;;7.38;0.90;;;;;;;17.17;80.16;100698.53;7385446;19;20037;-76
2022/06/30 07:04:33;;;;;;;6.40;0.40;;;;;;;17.17;79.82;100709.97;7385275;19;20654;-78
2022/06/30 07:07:06;;;;;;;7.80;0.63;;;;;;;17.15;79.48;100708.53;7383214;19;20023;-76
2022/06/30 07:09:34;;;;;;;4.32;0.63;;;;;;;17.14;79.05;100709.53;7383499;19;20019;-78
2022/06/30 07:12:02;;;;;;;5.85;0.50;;;;;;;17.15;79.82;100711.19;7385223;19;20040;-77
2022/06/30 07:14:28;;;;;;;8.10;0.40;;;;;;;17.20;79.61;100716.75;7387909;19;20227;-77
2022/06/30 07:16:55;;;;;;;6.97;0.47;;;;;;;17.24;79.14;100724.13;7384339;19;20088;-78
2022/06/30 07:19:23;;;;;;;2.40;0.30;;;;;;;17.26;78.50;100719.44;7383998;19;20007;-77
2022/06/30 07:21:50;;;;;;;6.15;0.50;;;;;;;17.33;78.91;100719.44;7384358;19;20014;-78
2022/06/30 07:24:17;;;;;;;7.95;0.40;;;;;;;17.34;76.91;100719.25;7382888;19;20037;-78
2022/06/30 07:26:44;;;;;;;6.10;0.40;;;;;;;17.37;77.06;100724.16;7382125;19;20022;-78
2022/06/30 07:29:11;;;;;;;10.07;0.60;;;;;;;17.39;76.84;100721.31;7384979;19;20094;-77
2022/06/30 07:31:38;;;;;;;36.13;2.95;;;;;;;17.40;76.77;100721.13;7382894;19;20025;-76
2022/06/30 07:34:05;;;;;;;48.95;6.38;;;;;;;17.42;77.64;100721.72;7381347;19;20015;-76
2022/06/30 07:36:32;;;;;;;7.93;0.77;;;;;;;17.42;75.67;100713.72;7382949;19;20193;-78
2022/06/30 07:38:59;;;;;;;10.13;0.93;;;;;;;17.41;75.82;100722.75;7383693;19;20432;-77
2022/06/30 07:41:26;;;;;;;6.40;0.40;;;;;;;17.48;75.70;100722.75;7383264;19;20018;-78
2022/06/30 07:43:53;;;;;;;3.17;0.40;;;;;;;17.59;75.18;100726.69;7384750;19;20426;-76
2022/06/30 07:46:20;;;;;;;11.95;0.90;;;;;;;17.94;75.00;100730.88;7382261;19;20025;-78
2022/06/30 07:48:48;;;;;;;7.60;0.60;;;;;;;18.38;73.86;100730.28;7382947;19;20014;-77
2022/06/30 07:51:17;;;;;;;6.38;0.40;;;;;;;18.66;71.95;100740.72;7381245;19;20019;-77
2022/06/30 07:53:44;;;;;;;7.63;0.45;;;;;;;18.76;69.36;100733.13;7386284;19;20044;-77
2022/06/30 07:56:11;;;;;;;5.47;0.43;;;;;;;18.75;69.70;100744.81;7384838;19;20095;-77
2022/06/30 07:58:38;;;;;;;5.05;0.30;;;;;;;18.66;69.22;100751.38;7385422;19;20027;-78
2022/06/30 08:01:05;;;;;;;4.88;0.35;;;;;;;18.60;71.86;100742.38;7388012;19;20023;-76
2022/06/30 08:03:39;;;;;;;7.13;0.50;;;;;;;18.59;73.08;100746.06;7388791;19;20022;-77
2022/06/30 08:06:06;;;;;;;6.45;0.85;;;;;;;18.51;70.91;100751.56;7385995;19;20014;-76
2022/06/30 08:08:33;;;;;;;6.05;0.50;;;;;;;18.49;72.17;100748.28;7390301;19;20085;-78
2022/06/30 08:11:00;;;;;;;5.57;0.55;;;;;;;18.44;69.58;100742.75;7391648;19;20022;-77
2022/06/30 08:13:32;;;;;;;5.90;0.70;;;;;;;18.43;68.75;100753.66;7391228;19;20030;-77
2022/06/30 08:15:59;;;;;;;3.20;0.40;;;;;;;18.38;69.03;100759.59;7388834;19;20508;-77
2022/06/30 08:18:25;;;;;;;5.85;0.50;;;;;;;18.39;70.49;100759.38;7389171;19;20497;-77
2022/06/30 08:20:52;;;;;;;7.57;0.55;;;;;;;18.36;69.38;100762.47;7387976;19;20028;-76
2022/06/30 08:23:19;;;;;;;5.30;0.35;;;;;;;18.37;69.79;100756.09;7389362;19;20035;-76
2022/06/30 08:25:46;;;;;;;2.88;0.40;;;;;;;18.38;70.11;100754.25;7391808;19;20021;-76
2022/06/30 08:28:14;;;;;;;1.50;0.10;;;;;;;18.35;68.90;100744.81;7390659;19;20546;-77
2022/06/30 08:30:40;;;;;;;3.65;0.40;;;;;;;18.35;69.34;100739.50;7390866;19;20356;-78
2022/06/30 08:33:07;;;;;;;6.65;0.40;;;;;;;18.33;67.23;100749.56;7391221;19;20015;-77
2022/06/30 08:35:34;;;;;;;22.80;3.35;;;;;;;18.35;68.21;100752.81;7388442;19;20018;-79
2022/06/30 08:38:21;;;;;;;21.73;2.53;;;;;;;18.40;67.81;100760.19;7390474;19;20014;-77
2022/06/30 08:43:36;;;;;;;6.38;0.70;;;;;;;18.38;66.05;100744.44;7389162;19;20022;-77
2022/06/30 08:46:03;;;;;;;1.83;0.30;;;;;;;18.36;66.40;100750.97;7390831;19;20025;-78
2022/06/30 08:48:30;;;;;;;3.20;0.20;;;;;;;18.36;65.74;100750.97;7390040;19;20035;-77
2022/06/30 08:51:03;;;;;;;3.30;0.20;;;;;;;18.36;65.74;100756.31;7390316;19;20487;-78
2022/06/30 08:53:59;;;;;;;14.27;1.55;;;;;;;18.39;66.32;100754.03;7392604;19;20014;-78
2022/06/30 08:56:34;;;;;;;5.65;0.40;;;;;;;18.44;65.98;100749.97;7390190;19;20022;-77
2022/06/30 08:59:04;;;;;;;3.38;0.40;;;;;;;18.45;65.20;100747.06;7390902;19;20317;-77
2022/06/30 09:01:32;;;;;;;5.07;0.40;;;;;;;18.50;65.74;100743.78;7390794;19;20026;-76
2022/06/30 09:04:00;;;;;;;3.08;0.55;;;;;;;18.57;65.93;100744.63;7384515;19;20019;-77
2022/06/30 09:06:27;;;;;;;5.07;0.30;;;;;;;18.61;65.04;100745.84;7386026;19;20018;-77
2022/06/30 09:09:07;;;;;;;19.38;2.10;;;;;;;18.64;66.24;100740.13;7390067;19;20763;-78
2022/06/30 09:11:49;;;;;;;65.80;9.32;;;;;;;18.69;65.28;100735.78;7388448;19;20301;-76
2022/06/30 09:14:46;;;;;;;21.50;2.72;;;;;;;18.67;62.70;100737.84;7389770;19;20092;-77
2022/06/30 09:17:19;;;;;;;14.93;1.85;;;;;;;18.67;63.71;100743.19;7385666;19;20006;-75
2022/06/30 09:19:50;;;;;;;;;;;;;;;18.67;62.94;100745.84;7388574;19;20082;-76
2022/06/30 09:22:17;;;;;;;3.10;0.40;;;;;;;18.68;63.08;100750.16;7388225;19;19918;-77
2022/06/30 09:24:44;;;;;;;4.30;0.40;;;;;;;18.67;62.34;100750.38;7386792;19;20023;-76
2022/06/30 09:27:19;;;;;;;2.90;0.80;;;;;;;18.72;63.04;100740.72;7386796;19;20036;-76
2022/06/30 09:30:09;;;;;;;8.30;0.90;;;;;;;18.76;63.27;100739.28;7389056;19;20026;-76
2022/06/30 09:32:45;;;;;;;31.30;3.47;;;;;;;18.79;62.42;100746.84;7391350;19;20034;-76
2022/06/30 09:35:13;;;;;;;27.23;3.83;;;;;;;18.81;62.06;100735.97;7388440;19;20727;-76
2022/06/30 09:37:41;;;;;;;12.18;1.17;;;;;;;18.85;62.30;100747.84;7392186;19;20010;-77
2022/06/30 09:40:10;;;;;;;8.70;0.40;;;;;;;18.87;62.12;100737.81;7390775;19;20046;-76
2022/06/30 09:42:41;;;;;;;3.10;0.20;;;;;;;18.86;60.46;100743.34;7389173;19;20022;-77
2022/06/30 09:45:33;;;;;;;3.22;0.20;;;;;;;18.89;61.49;100743.78;7388989;19;20010;-77
2022/06/30 09:48:02;;;;;;;3.30;0.45;;;;;;;18.87;60.56;100735.16;7390090;19;20025;-76
2022/06/30 09:50:29;;;;;;;4.45;0.20;;;;;;;18.88;60.46;100738.63;7385853;19;20396;-77
2022/06/30 09:53:14;;;;;;;3.08;0.25;;;;;;;18.87;60.12;100740.47;7389241;19;20420;-76
2022/06/30 09:55:51;;;;;;;3.72;0.20;;;;;;;18.83;58.89;100735.78;7385609;19;20602;-76
2022/06/30 09:58:29;;;;;;;8.43;0.70;;;;;;;18.80;59.92;100734.34;7389994;19;20085;-76
2022/06/30 10:00:59;;;;;;;20.02;3.63;;;;;;;18.81;60.22;100738.63;7340629;19;20017;-77
2022/06/30 10:03:33;;;;;;;9.55;1.60;;;;;;;18.84;61.44;100732.91;7387371;19;20033;-77
2022/06/30 10:06:08;;;;;;;10.38;2.40;;;;;;;18.89;60.83;100733.09;7382966;19;20046;-76
2022/06/30 10:08:35;;;;;;;7.50;0.80;;;;;;;18.91;59.59;100740.88;7386219;19;20046;-77
2022/06/30 10:11:03;;;;;;;3.25;0.60;;;;;;;18.92;59.49;100734.50;7386357;19;20031;-77
2022/06/30 10:13:35;;;;;;;1.08;0.10;;;;;;;18.91;59.43;100739.03;7390137;19;20034;-76
2022/06/30 10:16:04;;;;;;;2.65;0.50;;;;;;;18.92;60.76;100739.84;7387266;19;20026;-77
2022/06/30 10:18:37;;;;;;;5.05;1.40;;;;;;;18.92;60.57;100735.34;7387100;19;20010;-77
2022/06/30 10:21:04;;;;;;;3.25;0.35;;;;;;;18.93;60.76;100736.16;7385028;19;20284;-75
2022/06/30 10:23:32;;;;;;;2.72;0.20;;;;;;;18.94;60.27;100749.28;7384133;19;20078;-76
2022/06/30 10:25:59;;;;;;;3.72;0.22;;;;;;;18.97;59.36;100748.88;7383580;19;20018;-77
2022/06/30 10:28:30;;;;;;;3.90;0.35;;;;;;;18.98;58.56;100752.34;7388023;19;20023;-76
2022/06/30 10:31:14;;;;;;;12.73;1.10;;;;;;;19.01;59.42;100759.91;7387969;19;20014;-76
2022/06/30 10:34:13;;;;;;;5.35;0.22;;;;;;;19.03;58.55;100745.38;7385608;19;20010;-77
2022/06/30 10:37:03;;;;;;;3.13;0.20;;;;;;;19.05;57.85;100739.78;7383901;19;20022;-77
2022/06/30 10:39:37;;;;;;;9.23;0.60;;;;;;;19.08;57.13;100750.06;7386563;19;20014;-77
2022/06/30 10:42:04;;;;;;;2.28;0.30;;;;;;;19.12;57.89;100744.09;7386196;19;20011;-76
2022/06/30 10:44:32;;;;;;;25.90;2.22;;;;;;;19.14;58.06;100747.38;7385881;19;20041;-76
2022/06/30 10:47:06;;;;;;;27.25;2.33;;;;;;;19.18;57.70;100751.25;7388481;19;20007;-76
2022/06/30 10:49:52;;;;;;;6.83;0.20;;;;;;;19.16;55.80;100742.63;7384409;19;20015;-76
2022/06/30 10:52:20;;;;;;;14.23;5.63;;;;;;;19.15;57.05;100742.84;7387092;19;20046;-75
2022/06/30 10:54:47;;;;;;;12.18;1.83;;;;;;;19.14;57.08;100742.06;7386134;19;20431;-77
2022/06/30 10:57:17;;;;;;;8.55;0.82;;;;;;;19.17;57.64;100738.13;7388180;19;20014;-76
2022/06/30 10:59:43;;;;;;;4.72;0.52;;;;;;;19.19;56.79;100741.41;7387636;19;20070;-77
2022/06/30 11:02:23;;;;;;;4.88;0.47;;;;;;;19.21;56.52;100737.50;7387913;19;20047;-76
2022/06/30 11:05:11;;;;;;;1.52;0.57;;;;;;;19.21;56.75;100729.47;7383704;19;20074;-76
2022/06/30 11:07:38;;;;;;;3.97;0.47;;;;;;;19.23;57.10;100734.63;7382532;19;20081;-78
2022/06/30 11:10:05;;;;;;;26.45;2.83;;;;;;;19.23;58.13;100751.44;7386059;19;20018;-77
2022/06/30 11:12:34;;;;;;;12.38;1.55;;;;;;;19.25;57.30;100745.09;7387657;19;20366;-76
2022/06/30 11:15:01;;;;;;;7.78;0.82;;;;;;;19.27;58.06;100741.16;7386836;19;20694;-76
2022/06/30 11:17:30;;;;;;;2.60;0.32;;;;;;;19.27;57.68;100738.50;7388252;19;20018;-78
2022/06/30 11:20:08;;;;;;;10.35;3.90;;;;;;;19.28;58.02;100734.81;7384434;19;20031;-76
2022/06/30 11:22:35;;;;;;;4.20;0.88;;;;;;;19.31;58.65;100734.38;7385875;19;20015;-76
2022/06/30 11:25:08;;;;;;;3.97;0.22;;;;;;;19.33;58.61;100734.16;7384254;19;20527;-76
2022/06/30 11:27:38;;;;;;;8.93;0.60;;;;;;;19.33;59.52;100743.00;7382275;19;20638;-77
2022/06/30 11:30:10;;;;;;;10.95;1.65;;;;;;;19.36;59.56;100731.06;7386059;19;20122;-75
2022/06/30 11:32:38;;;;;;;6.20;0.70;;;;;;;19.35;59.18;100740.91;7385435;19;20013;-77
2022/06/30 11:35:06;;;;;;;9.07;0.60;;;;;;;19.37;59.32;100738.03;7383065;19;20016;-76
2022/06/30 11:37:33;;;;;;;11.35;1.15;;;;;;;19.32;58.89;100733.34;7386214;19;20014;-79
2022/06/30 11:40:06;;;;;;;10.13;0.93;;;;;;;19.33;59.80;100743.00;7385468;19;20010;-77
2022/06/30 11:42:33;;;;;;;;;;;;;;;19.33;60.06;100737.66;7389400;19;20011;-77
2022/06/30 11:45:00;;;;;;;1.60;0.20;;;;;;;19.31;58.67;100738.88;7383387;19;19914;-77
2022/06/30 11:47:30;;;;;;;16.42;1.55;;;;;;;19.34;58.46;100727.81;7387267;19;20022;-77